BLH weather

Blythe Airport
Blythe, California, United States

Public forecast

Using degrees Fahrenheit for public forecast. Weather courtesy of forecast.io.

METAR (pilot weather report)

Retrieved 2019/06/16 21:52 UTC (42 minutes ago):

KBLH 162152Z AUTO 17012KT 10SM CLR 40/03 A2967 RMK AO2 SLP039 T04000028

TAF (pilot weather forecast)

Retrieved 2019/06/16 18:36 UTC (4 hours ago):

TAF KBLH 161734Z 1618/1718 19018G27KT P6SM SKC FM170300 19008KT P6SM SCT250